Airfield :
LOGIN :

Register | Disclaimer

   EN    FR    IT 

 










Legend :    VFR   Marginal VFR   IFR   Intensive IFR   Very Intensive IFR
Visi :
Ceiling :
>= 8 km
>= 3000ft
5 to 8 km
1000 to 3000 ft
1500m to 5 km
500 to 1000 ft
800 to 1500m
200 to 500 ft
< 800m
< 200 ft
Symbols :   Thunderstorms  Fog  Heavy snow  Heavy precipitations  Wind > 20 kt
SIGMETs :     Misc.  Thunderstorms  Icing  Turbulence  Mountain Waves  Volcanic Ashes







- Airport Elevation : 1084 ft
- IATA code : EPL
- Download approach charts


LFSG - Épinal-Mirecourt

CURRENT METAR :
  • 231330Z AUTO 21019KT 7000 -RADZ SCT028 BKN035 OVC043 19/17 Q1013

EXPIRED METARs :
  • 231300Z AUTO 20019KT 9999 FEW015 BKN026 OVC033 19/17 Q1013
  • 231230Z AUTO 20017KT 4900 -RA BR BKN024 OVC034 19/17 Q1014
  • 231200Z AUTO 20018KT 7000 -RA FEW012 BKN021 OVC027 18/17 Q1014
  • 231130Z AUTO 20019KT 9999 BKN019 BKN025 BKN031 19/17 Q1015
  • 231100Z AUTO 21021KT 9999 BKN017 BKN026 OVC040 20/16 Q1015

TAF N/A
No reported NOTAMs for that airfield.
2 SIGMETs reported for the Reims FIR (LFEE) :
 
Severe turbulence
LFEE SIGMET 2 VALID 231200/231600 LFPW
LFEE REIMS FIR/UIR SEV TURB FCST WI N4900 E00500 - N4930 E00600 - N4915 E00730 - N4845 E00545 - N4900 E00500 SFC/FL050 STNR NC=
Severe turbulence
LFEE SIGMET 1 VALID 231100/231500 LFPW
LFEE REIMS FIR/UIR SEV TURB FCST WI N4900 E00815 - N4745 E00745 - N4745 E00630 - N4900 E00715 - N4900 E00815 SFC/FL050 STNR NC=



MET'MAP, your aeronautical weather chart ! - Copyright ORBIFLY December 2007 - Disclaimer

ORBIFLY MET'MAP TEAM :

Programming & Development : Alexandra Zaïnal
Concept & Development : Baudouin d'Aumeries
Co-Development & Prog : Marc-Olivier Méhu
Technical & hardware support : Manuel Goepfert

Contact : metmap@orbifly.com




SOURCES & CREDITS :

   NOAA